createdAt,value
2022-09-07T00:00:36.543Z,10.70
2022-09-07T00:05:43.175Z,13.47
2022-09-07T00:10:59.834Z,13.17
2022-09-07T00:16:07.594Z,12.77
2022-09-07T00:21:10.933Z,13.00
2022-09-07T00:26:16.843Z,14.90
2022-09-07T00:31:21.645Z,8.77
2022-09-07T00:36:24.214Z,10.27
2022-09-07T00:41:26.186Z,10.40
2022-09-07T00:46:29.736Z,8.53
2022-09-07T00:51:47.759Z,5.73
2022-09-07T00:56:52.710Z,12.13
2022-09-07T01:01:54.778Z,10.47
2022-09-07T01:06:57.148Z,10.37
2022-09-07T01:12:02.118Z,9.67
2022-09-07T01:17:18.878Z,8.60
2022-09-07T01:22:58.242Z,10.20
2022-09-07T01:28:22.697Z,8.90
2022-09-07T01:33:34.375Z,8.27
2022-09-07T01:38:46.724Z,10.70
2022-09-07T01:44:00.803Z,10.87
2022-09-07T01:49:16.835Z,11.07
2022-09-07T01:54:22.470Z,10.63
2022-09-07T01:59:34.048Z,9.53
2022-09-07T02:04:43.900Z,12.97
2022-09-07T02:09:59.190Z,9.97
2022-09-07T02:15:07.326Z,12.40
2022-09-07T02:20:13.227Z,10.77
2022-09-07T02:25:23.927Z,10.43
2022-09-07T02:30:25.948Z,7.30
2022-09-07T02:35:28.255Z,13.53
2022-09-07T02:40:30.959Z,12.93
2022-09-07T02:45:47.889Z,8.57
2022-09-07T02:51:23.266Z,10.93
2022-09-07T02:57:05.036Z,8.90
2022-09-07T03:02:13.112Z,16.73
2022-09-07T03:07:25.691Z,16.97
2022-09-07T03:12:44.792Z,16.63
2022-09-07T03:17:47.106Z,18.47
2022-09-07T03:22:51.007Z,18.47
2022-09-07T03:27:52.919Z,21.57
2022-09-07T03:32:54.798Z,18.70
2022-09-07T03:37:56.775Z,21.40
2022-09-07T03:42:59.055Z,22.60
2022-09-07T03:48:01.412Z,21.60
2022-09-07T03:53:03.281Z,18.33
2022-09-07T03:58:05.586Z,23.70
2022-09-07T04:03:07.471Z,25.40
2022-09-07T04:08:09.356Z,24.50
2022-09-07T04:13:11.699Z,30.77
2022-09-07T04:18:13.613Z,31.60
2022-09-07T04:23:15.527Z,24.80
2022-09-07T04:28:18.906Z,29.13
2022-09-07T04:33:21.719Z,28.77
2022-09-07T04:38:23.629Z,23.73
2022-09-07T04:43:25.526Z,24.73
2022-09-07T04:48:27.801Z,22.73
2022-09-07T04:53:30.144Z,28.70
2022-09-07T04:58:32.597Z,28.60
2022-09-07T05:03:38.511Z,26.40
2022-09-07T05:08:42.985Z,24.00
2022-09-07T05:13:45.678Z,27.83
2022-09-07T05:18:51.682Z,30.37
2022-09-07T05:23:55.185Z,24.93
2022-09-07T05:34:35.484Z,22.70
2022-09-07T05:39:37.950Z,17.30
2022-09-07T05:49:43.166Z,17.77
2022-09-07T05:54:45.535Z,21.20
2022-09-07T05:59:47.449Z,25.00
2022-09-07T06:04:50.809Z,23.93
2022-09-07T06:15:14.605Z,23.13
2022-09-07T06:20:16.640Z,21.90
2022-09-07T06:25:18.919Z,25.13
2022-09-07T06:30:21.760Z,18.43
2022-09-07T06:35:24.074Z,22.07
2022-09-07T06:40:26.045Z,19.37
2022-09-07T06:45:28.416Z,18.10
2022-09-07T06:50:31.272Z,19.03
2022-09-07T06:55:33.606Z,15.37
2022-09-07T07:00:35.897Z,19.80
2022-09-07T07:05:38.221Z,20.87
2022-09-07T07:10:40.495Z,18.23
2022-09-07T07:15:42.912Z,15.50
2022-09-07T07:20:45.252Z,13.33
2022-09-07T07:25:47.144Z,8.60
2022-09-07T07:30:49.574Z,8.53
2022-09-07T07:35:51.410Z,7.73
2022-09-07T07:46:17.347Z,5.90
2022-09-07T07:51:19.580Z,7.13
2022-09-07T07:56:22.097Z,6.63
2022-09-07T08:01:24.063Z,7.83
2022-09-07T08:06:26.925Z,17.93
2022-09-07T08:11:30.371Z,5.43
2022-09-07T08:16:33.011Z,8.63
2022-09-07T08:21:35.127Z,8.60
2022-09-07T08:26:37.319Z,6.50
2022-09-07T08:31:39.093Z,8.97
2022-09-07T08:36:41.010Z,7.97
2022-09-07T08:42:15.594Z,18.70
2022-09-07T08:47:47.269Z,14.10
2022-09-07T08:53:16.347Z,12.23
2022-09-07T08:58:47.698Z,12.13
2022-09-07T09:09:15.575Z,10.93
2022-09-07T09:14:32.662Z,6.20
2022-09-07T09:19:34.863Z,9.80
2022-09-07T09:24:40.407Z,6.33
2022-09-07T09:29:42.599Z,8.00
2022-09-07T09:35:14.661Z,6.97
2022-09-07T09:40:30.245Z,7.07
2022-09-07T09:56:20.756Z,8.07
2022-09-07T10:01:26.060Z,6.43
2022-09-07T10:06:28.890Z,9.47
2022-09-07T10:17:42.077Z,12.20
2022-09-07T10:22:47.519Z,6.60
2022-09-07T10:28:12.675Z,7.97
2022-09-07T10:33:34.693Z,9.03
2022-09-07T10:38:54.862Z,6.33
2022-09-07T10:43:57.623Z,4.77
2022-09-07T10:49:05.976Z,7.10
2022-09-07T10:54:37.394Z,6.20
2022-09-07T11:00:09.757Z,8.20
2022-09-07T11:05:24.315Z,10.27
2022-09-07T11:10:44.350Z,6.97
2022-09-07T11:15:49.990Z,7.20
2022-09-07T11:20:56.229Z,8.87
2022-09-07T11:26:02.990Z,12.03
2022-09-07T11:31:08.336Z,7.50
2022-09-07T11:36:17.500Z,9.70
2022-09-07T11:41:22.597Z,8.70
2022-09-07T11:46:24.879Z,4.97
2022-09-07T11:51:35.375Z,12.43
2022-09-07T11:56:45.820Z,6.03
2022-09-07T12:01:56.395Z,7.73
2022-09-07T12:07:41.579Z,6.60
2022-09-07T12:12:49.589Z,5.80
2022-09-07T12:18:11.298Z,9.03
2022-09-07T12:23:15.773Z,7.93
2022-09-07T12:28:21.872Z,6.50
2022-09-07T12:33:36.590Z,6.23
2022-09-07T12:39:16.092Z,10.90
2022-09-07T12:44:29.069Z,6.10
2022-09-07T12:49:37.160Z,8.37
2022-09-07T12:55:16.323Z,8.60
2022-09-07T13:00:17.777Z,10.10
2022-09-07T13:05:37.628Z,7.20
2022-09-07T13:10:44.122Z,7.40
2022-09-07T13:16:06.195Z,6.13
2022-09-07T13:21:08.438Z,5.67
2022-09-07T13:26:32.013Z,6.17
2022-09-07T13:31:39.716Z,6.37
2022-09-07T13:36:50.815Z,5.63
2022-09-07T13:41:54.571Z,8.10
2022-09-07T13:47:36.853Z,10.37
2022-09-07T13:52:50.624Z,7.57
2022-09-07T13:57:55.861Z,7.57
2022-09-07T14:03:01.551Z,5.57
2022-09-07T14:08:03.805Z,5.67
2022-09-07T14:13:12.497Z,4.63
2022-09-07T14:18:16.277Z,5.87
2022-09-07T14:23:25.375Z,8.20
2022-09-07T14:28:32.289Z,6.43
2022-09-07T14:33:34.788Z,5.47
2022-09-07T14:44:00.662Z,4.43
2022-09-07T14:49:04.330Z,5.00
2022-09-07T14:54:07.490Z,3.43
2022-09-07T14:59:42.335Z,3.93
2022-09-07T15:04:48.267Z,4.60
2022-09-07T15:09:50.729Z,7.90
2022-09-07T15:14:53.569Z,3.00
2022-09-07T15:19:55.404Z,3.93
2022-09-07T15:24:57.235Z,4.83
2022-09-07T15:29:59.417Z,5.07
2022-09-07T15:35:01.591Z,4.10
2022-09-07T15:40:04.366Z,4.70
2022-09-07T15:45:06.917Z,5.13
2022-09-07T15:50:09.739Z,5.97
2022-09-07T15:55:12.125Z,4.30
2022-09-07T16:00:14.277Z,9.80
2022-09-07T16:05:17.058Z,3.40
2022-09-07T16:10:19.356Z,4.77
2022-09-07T16:15:21.214Z,2.40
2022-09-07T16:20:23.050Z,9.03
2022-09-07T16:25:24.876Z,4.70
2022-09-07T16:30:26.953Z,5.97
2022-09-07T16:35:28.722Z,4.20
2022-09-07T16:40:30.717Z,3.27
2022-09-07T16:51:01.168Z,4.60
2022-09-07T16:56:05.802Z,6.17
2022-09-07T17:01:08.800Z,3.97
2022-09-07T17:06:12.109Z,5.63
2022-09-07T17:11:22.480Z,7.00
2022-09-07T17:16:27.418Z,4.97
2022-09-07T17:21:37.019Z,4.80
2022-09-07T17:26:42.197Z,4.00
2022-09-07T17:37:06.621Z,7.50
2022-09-07T17:42:09.759Z,6.23
2022-09-07T17:47:12.829Z,3.27
2022-09-07T17:52:15.211Z,8.10
2022-09-07T17:57:17.410Z,5.63
2022-09-07T18:02:20.286Z,5.80
2022-09-07T18:07:22.557Z,5.90
2022-09-07T18:12:24.399Z,5.07
2022-09-07T18:17:26.334Z,7.90
2022-09-07T18:22:28.089Z,5.73
2022-09-07T18:27:31.067Z,6.10
2022-09-07T18:32:33.235Z,5.67
2022-09-07T18:37:35.081Z,6.77
2022-09-07T18:42:37.310Z,6.23
2022-09-07T18:47:40.081Z,9.43
2022-09-07T18:58:03.759Z,16.37
2022-09-07T19:03:05.932Z,10.67
2022-09-07T19:08:08.519Z,6.90
2022-09-07T19:13:10.381Z,7.10
2022-09-07T19:18:12.610Z,6.20
2022-09-07T19:23:14.401Z,8.50
2022-09-07T19:28:17.949Z,7.57
2022-09-07T19:33:20.117Z,11.57
2022-09-07T19:38:21.904Z,13.03
2022-09-07T19:43:24.359Z,7.30
2022-09-07T19:48:27.116Z,6.50
2022-09-07T19:53:33.175Z,7.43
2022-09-07T19:58:36.902Z,5.20
2022-09-07T20:03:40.088Z,4.30
2022-09-07T20:08:42.810Z,2.93
2022-09-07T20:13:45.328Z,3.57
2022-09-07T20:18:50.360Z,3.40
2022-09-07T20:23:52.720Z,4.20
2022-09-07T20:29:10.980Z,3.10
2022-09-07T20:34:17.257Z,3.80
2022-09-07T20:39:20.265Z,5.20
2022-09-07T20:44:22.158Z,3.80
2022-09-07T20:49:24.337Z,4.90
2022-09-07T20:54:26.490Z,5.20
2022-09-07T20:59:28.672Z,5.00
2022-09-07T21:04:30.523Z,3.37
2022-09-07T21:09:32.295Z,5.60
2022-09-07T21:14:34.632Z,3.97
2022-09-07T21:19:37.029Z,2.30
2022-09-07T21:24:38.849Z,5.17
2022-09-07T21:29:40.649Z,4.37
2022-09-07T21:34:42.414Z,3.03
2022-09-07T21:39:44.645Z,3.23
2022-09-07T21:44:46.430Z,4.30
2022-09-07T21:49:48.216Z,3.20
2022-09-07T21:54:49.966Z,4.30
2022-09-07T21:59:51.821Z,5.33
2022-09-07T22:04:54.016Z,3.47
2022-09-07T22:09:55.861Z,4.60
2022-09-07T22:14:58.199Z,3.00
2022-09-07T22:19:59.953Z,3.27
2022-09-07T22:25:02.170Z,4.17
2022-09-07T22:30:05.026Z,4.13
2022-09-07T22:35:07.653Z,5.40
2022-09-07T22:40:09.910Z,6.10
2022-09-07T22:45:11.737Z,7.17
2022-09-07T22:50:13.974Z,3.30
2022-09-07T22:55:15.790Z,3.20
2022-09-07T23:00:17.619Z,2.77
2022-09-07T23:05:19.412Z,2.40
2022-09-07T23:10:21.287Z,3.13
2022-09-07T23:15:23.399Z,7.20
2022-09-07T23:20:25.620Z,2.83
2022-09-07T23:25:28.369Z,6.97
2022-09-07T23:30:30.682Z,4.73
2022-09-07T23:35:32.917Z,3.93
2022-09-07T23:40:35.747Z,5.20
2022-09-07T23:45:37.555Z,3.70
2022-09-07T23:50:39.438Z,2.80
2022-09-07T23:55:41.837Z,3.13
